sensor_id;sensor_type;location;lat;lon;timestamp;pressure;altitude;pressure_sealevel;temperature;humidity
77897;BME280;67092;64.282;21.056;2023-03-31T00:02:11;100122.26;;;20.66;20.07
77897;BME280;67092;64.282;21.056;2023-03-31T00:04:36;100118.34;;;20.33;20.43
77897;BME280;67092;64.282;21.056;2023-03-31T00:07:02;100113.73;;;20.36;20.19
77897;BME280;67092;64.282;21.056;2023-03-31T00:09:28;100111.37;;;20.38;20.15
77897;BME280;67092;64.282;21.056;2023-03-31T00:11:54;100107.91;;;20.25;20.20
77897;BME280;67092;64.282;21.056;2023-03-31T00:14:19;100106.11;;;20.31;20.22
77897;BME280;67092;64.282;21.056;2023-03-31T00:16:45;100104.88;;;20.25;20.18
77897;BME280;67092;64.282;21.056;2023-03-31T00:19:11;100098.56;;;20.26;20.15
77897;BME280;67092;64.282;21.056;2023-03-31T00:21:36;100100.75;;;20.74;19.91
77897;BME280;67092;64.282;21.056;2023-03-31T00:24:03;100097.74;;;20.88;19.78
77897;BME280;67092;64.282;21.056;2023-03-31T00:26:28;100095.07;;;20.19;19.93
77897;BME280;67092;64.282;21.056;2023-03-31T00:28:53;100094.71;;;20.73;19.91
77897;BME280;67092;64.282;21.056;2023-03-31T00:31:19;100092.09;;;20.19;20.06
77897;BME280;67092;64.282;21.056;2023-03-31T00:33:44;100091.79;;;20.75;19.81
77897;BME280;67092;64.282;21.056;2023-03-31T00:36:09;100089.85;;;20.53;20.00
77897;BME280;67092;64.282;21.056;2023-03-31T00:38:35;100087.48;;;20.15;20.06
77897;BME280;67092;64.282;21.056;2023-03-31T00:41:02;100085.58;;;20.10;20.08
77897;BME280;67092;64.282;21.056;2023-03-31T00:43:29;100083.91;;;20.59;19.69
77897;BME280;67092;64.282;21.056;2023-03-31T00:45:52;100082.45;;;20.27;19.97
77897;BME280;67092;64.282;21.056;2023-03-31T00:48:18;100080.20;;;20.74;19.81
77897;BME280;67092;64.282;21.056;2023-03-31T00:50:47;100077.41;;;20.43;19.99
77897;BME280;67092;64.282;21.056;2023-03-31T00:53:12;100081.06;;;20.31;20.05
77897;BME280;67092;64.282;21.056;2023-03-31T00:55:39;100082.36;;;20.53;19.83
77897;BME280;67092;64.282;21.056;2023-03-31T00:58:00;100082.25;;;20.24;19.98
77897;BME280;67092;64.282;21.056;2023-03-31T01:00:26;100083.21;;;20.22;20.12
77897;BME280;67092;64.282;21.056;2023-03-31T01:02:55;100077.97;;;20.05;20.08
77897;BME280;67092;64.282;21.056;2023-03-31T01:05:18;100077.96;;;20.53;19.80
77897;BME280;67092;64.282;21.056;2023-03-31T01:07:45;100074.76;;;20.49;19.86
77897;BME280;67092;64.282;21.056;2023-03-31T01:10:10;100072.23;;;20.37;19.96
77897;BME280;67092;64.282;21.056;2023-03-31T01:12:36;100069.91;;;19.89;20.21
77897;BME280;67092;64.282;21.056;2023-03-31T01:15:00;100072.42;;;20.04;20.23
77897;BME280;67092;64.282;21.056;2023-03-31T01:17:25;100072.02;;;19.75;20.26
77897;BME280;67092;64.282;21.056;2023-03-31T01:20:01;100071.39;;;20.18;20.18
77897;BME280;67092;64.282;21.056;2023-03-31T01:27:23;100068.97;;;20.18;20.08
77897;BME280;67092;64.282;21.056;2023-03-31T01:36:59;100061.58;;;19.78;20.15
77897;BME280;67092;64.282;21.056;2023-03-31T01:41:48;100057.89;;;19.61;20.45
77897;BME280;67092;64.282;21.056;2023-03-31T01:44:15;100052.36;;;19.94;20.25
77897;BME280;67092;64.282;21.056;2023-03-31T01:46:36;100051.16;;;19.80;20.35
77897;BME280;67092;64.282;21.056;2023-03-31T01:49:06;100050.54;;;20.05;20.16
77897;BME280;67092;64.282;21.056;2023-03-31T01:51:31;100046.20;;;19.95;20.03
77897;BME280;67092;64.282;21.056;2023-03-31T01:53:54;100045.54;;;19.64;20.50
77897;BME280;67092;64.282;21.056;2023-03-31T01:56:19;100042.44;;;19.66;20.42
77897;BME280;67092;64.282;21.056;2023-03-31T01:58:43;100042.03;;;19.80;20.13
77897;BME280;67092;64.282;21.056;2023-03-31T02:01:13;100042.44;;;20.02;20.19
77897;BME280;67092;64.282;21.056;2023-03-31T02:03:36;100042.59;;;19.96;20.19
77897;BME280;67092;64.282;21.056;2023-03-31T02:06:02;100042.08;;;19.88;20.09
77897;BME280;67092;64.282;21.056;2023-03-31T02:08:27;100040.55;;;19.84;20.24
77897;BME280;67092;64.282;21.056;2023-03-31T02:10:50;100042.72;;;20.23;20.05
77897;BME280;67092;64.282;21.056;2023-03-31T02:13:16;100038.00;;;19.95;20.20
77897;BME280;67092;64.282;21.056;2023-03-31T02:15:44;100036.49;;;19.81;20.35
77897;BME280;67092;64.282;21.056;2023-03-31T02:18:10;100035.50;;;19.98;20.23
77897;BME280;67092;64.282;21.056;2023-03-31T02:20:32;100031.04;;;19.70;20.38
77897;BME280;67092;64.282;21.056;2023-03-31T02:22:58;100029.84;;;19.74;20.18
77897;BME280;67092;64.282;21.056;2023-03-31T02:25:25;100029.38;;;20.10;20.11
77897;BME280;67092;64.282;21.056;2023-03-31T02:27:53;100031.89;;;20.12;20.04
77897;BME280;67092;64.282;21.056;2023-03-31T02:30:14;100026.73;;;19.58;20.32
77897;BME280;67092;64.282;21.056;2023-03-31T02:32:41;100028.57;;;19.89;20.24
77897;BME280;67092;64.282;21.056;2023-03-31T02:35:09;100029.29;;;19.86;20.08
77897;BME280;67092;64.282;21.056;2023-03-31T02:37:31;100025.85;;;19.59;20.43
77897;BME280;67092;64.282;21.056;2023-03-31T02:39:59;100023.73;;;19.76;20.14
77897;BME280;67092;64.282;21.056;2023-03-31T02:42:23;100021.63;;;19.84;20.27
77897;BME280;67092;64.282;21.056;2023-03-31T02:44:48;100020.76;;;20.06;20.19
77897;BME280;67092;64.282;21.056;2023-03-31T02:47:15;100019.56;;;19.66;20.21
77897;BME280;67092;64.282;21.056;2023-03-31T02:49:41;100020.11;;;20.12;20.06
77897;BME280;67092;64.282;21.056;2023-03-31T02:52:17;100018.73;;;20.07;19.93
77897;BME280;67092;64.282;21.056;2023-03-31T02:54:48;100017.04;;;19.80;20.31
77897;BME280;67092;64.282;21.056;2023-03-31T02:57:12;100019.76;;;20.05;20.11
77897;BME280;67092;64.282;21.056;2023-03-31T02:59:32;100015.47;;;19.86;20.07
77897;BME280;67092;64.282;21.056;2023-03-31T03:01:59;100013.81;;;19.56;20.47
77897;BME280;67092;64.282;21.056;2023-03-31T03:04:25;100011.36;;;20.04;20.23
77897;BME280;67092;64.282;21.056;2023-03-31T03:06:43;100010.01;;;20.10;20.04
77897;BME280;67092;64.282;21.056;2023-03-31T03:09:13;100012.88;;;19.57;20.19
77897;BME280;67092;64.282;21.056;2023-03-31T03:11:37;100019.81;;;20.16;19.95
77897;BME280;67092;64.282;21.056;2023-03-31T03:13:59;100021.10;;;19.68;20.10
77897;BME280;67092;64.282;21.056;2023-03-31T03:16:24;100019.61;;;19.58;20.21
77897;BME280;67092;64.282;21.056;2023-03-31T03:18:55;100019.24;;;19.62;20.16
77897;BME280;67092;64.282;21.056;2023-03-31T03:21:12;100017.77;;;19.67;20.08
77897;BME280;67092;64.282;21.056;2023-03-31T03:23:38;100016.40;;;19.93;20.01
77897;BME280;67092;64.282;21.056;2023-03-31T03:26:04;100018.49;;;19.99;20.02
77897;BME280;67092;64.282;21.056;2023-03-31T03:28:29;100019.24;;;20.34;19.97
77897;BME280;67092;64.282;21.056;2023-03-31T03:30:55;100021.24;;;20.06;19.93
77897;BME280;67092;64.282;21.056;2023-03-31T03:33:20;100019.87;;;20.00;20.03
77897;BME280;67092;64.282;21.056;2023-03-31T03:35:46;100011.99;;;19.83;19.94
77897;BME280;67092;64.282;21.056;2023-03-31T03:38:12;100016.16;;;20.12;19.89
77897;BME280;67092;64.282;21.056;2023-03-31T03:40:37;100014.13;;;19.95;20.07
77897;BME280;67092;64.282;21.056;2023-03-31T03:43:03;100014.50;;;19.74;20.16
77897;BME280;67092;64.282;21.056;2023-03-31T03:45:28;100017.96;;;20.16;19.82
77897;BME280;67092;64.282;21.056;2023-03-31T03:47:54;100013.35;;;19.93;19.96
77897;BME280;67092;64.282;21.056;2023-03-31T03:50:20;100016.39;;;19.80;20.08
77897;BME280;67092;64.282;21.056;2023-03-31T03:52:46;100010.90;;;19.89;19.96
77897;BME280;67092;64.282;21.056;2023-03-31T03:55:11;100006.94;;;19.81;20.05
77897;BME280;67092;64.282;21.056;2023-03-31T03:57:37;100006.89;;;19.73;20.08
77897;BME280;67092;64.282;21.056;2023-03-31T04:00:03;100009.76;;;19.72;20.10
77897;BME280;67092;64.282;21.056;2023-03-31T04:02:28;100010.14;;;19.57;20.39
77897;BME280;67092;64.282;21.056;2023-03-31T04:04:53;100008.31;;;19.78;20.00
77897;BME280;67092;64.282;21.056;2023-03-31T04:07:19;100009.12;;;19.89;19.90
77897;BME280;67092;64.282;21.056;2023-03-31T04:09:45;100008.64;;;19.59;19.91
77897;BME280;67092;64.282;21.056;2023-03-31T04:12:10;100008.15;;;20.14;20.17
77897;BME280;67092;64.282;21.056;2023-03-31T04:14:36;100008.84;;;20.11;20.26
77897;BME280;67092;64.282;21.056;2023-03-31T04:17:02;100009.63;;;19.88;20.45
77897;BME280;67092;64.282;21.056;2023-03-31T04:19:27;100005.74;;;19.87;20.40
77897;BME280;67092;64.282;21.056;2023-03-31T04:21:53;100003.62;;;19.39;20.52
77897;BME280;67092;64.282;21.056;2023-03-31T04:24:19;100005.00;;;20.38;20.21
77897;BME280;67092;64.282;21.056;2023-03-31T04:26:44;100003.07;;;19.51;20.47
77897;BME280;67092;64.282;21.056;2023-03-31T04:29:11;100002.52;;;19.66;20.43
77897;BME280;67092;64.282;21.056;2023-03-31T04:31:36;100003.06;;;20.01;20.13
77897;BME280;67092;64.282;21.056;2023-03-31T04:34:01;100002.30;;;19.95;20.12
77897;BME280;67092;64.282;21.056;2023-03-31T04:36:27;100005.09;;;19.96;20.18
77897;BME280;67092;64.282;21.056;2023-03-31T04:38:52;100004.84;;;19.56;20.43
77897;BME280;67092;64.282;21.056;2023-03-31T04:41:18;100006.94;;;19.65;20.36
77897;BME280;67092;64.282;21.056;2023-03-31T04:43:44;100008.85;;;20.13;19.96
77897;BME280;67092;64.282;21.056;2023-03-31T04:46:09;100005.98;;;19.83;20.13
77897;BME280;67092;64.282;21.056;2023-03-31T04:48:35;100007.65;;;19.55;20.22
77897;BME280;67092;64.282;21.056;2023-03-31T04:51:01;100009.45;;;19.50;20.41
77897;BME280;67092;64.282;21.056;2023-03-31T04:53:26;100005.71;;;19.84;20.32
77897;BME280;67092;64.282;21.056;2023-03-31T04:55:52;100004.78;;;20.19;19.84
77897;BME280;67092;64.282;21.056;2023-03-31T04:58:18;99999.13;;;19.91;20.13
77897;BME280;67092;64.282;21.056;2023-03-31T05:00:43;99997.37;;;19.68;20.25
77897;BME280;67092;64.282;21.056;2023-03-31T05:03:09;99996.96;;;19.69;20.26
77897;BME280;67092;64.282;21.056;2023-03-31T05:05:34;99996.93;;;19.57;20.31
77897;BME280;67092;64.282;21.056;2023-03-31T05:08:00;99997.41;;;19.55;20.09
77897;BME280;67092;64.282;21.056;2023-03-31T05:10:26;99996.95;;;19.77;20.22
77897;BME280;67092;64.282;21.056;2023-03-31T05:12:51;99997.28;;;19.76;20.16
77897;BME280;67092;64.282;21.056;2023-03-31T05:15:17;99997.24;;;19.71;20.03
77897;BME280;67092;64.282;21.056;2023-03-31T05:17:43;99995.26;;;20.01;19.96
77897;BME280;67092;64.282;21.056;2023-03-31T05:20:09;99994.15;;;19.83;20.10
77897;BME280;67092;64.282;21.056;2023-03-31T05:22:35;99992.91;;;19.75;20.14
77897;BME280;67092;64.282;21.056;2023-03-31T05:24:59;99991.87;;;19.40;20.48
77897;BME280;67092;64.282;21.056;2023-03-31T05:27:25;99991.41;;;20.16;20.02
77897;BME280;67092;64.282;21.056;2023-03-31T05:29:51;99986.99;;;19.83;20.26
77897;BME280;67092;64.282;21.056;2023-03-31T05:32:16;99984.91;;;19.51;20.67
77897;BME280;67092;64.282;21.056;2023-03-31T05:34:42;99986.50;;;19.97;20.40
77897;BME280;67092;64.282;21.056;2023-03-31T05:37:08;99986.77;;;20.09;20.49
77897;BME280;67092;64.282;21.056;2023-03-31T05:39:34;99981.82;;;19.48;20.62
77897;BME280;67092;64.282;21.056;2023-03-31T05:41:59;99984.33;;;19.70;20.39
77897;BME280;67092;64.282;21.056;2023-03-31T05:44:25;99980.52;;;19.76;20.24
77897;BME280;67092;64.282;21.056;2023-03-31T05:46:50;99985.31;;;19.64;20.30
77897;BME280;67092;64.282;21.056;2023-03-31T05:49:16;99986.27;;;19.92;20.02
77897;BME280;67092;64.282;21.056;2023-03-31T05:51:41;99983.98;;;19.91;19.97
77897;BME280;67092;64.282;21.056;2023-03-31T05:54:07;99989.31;;;19.74;20.06
77897;BME280;67092;64.282;21.056;2023-03-31T05:56:33;99991.45;;;19.71;20.05
77897;BME280;67092;64.282;21.056;2023-03-31T05:58:59;99991.45;;;19.57;20.25
77897;BME280;67092;64.282;21.056;2023-03-31T06:01:24;99994.87;;;20.27;19.72
77897;BME280;67092;64.282;21.056;2023-03-31T06:03:50;99996.27;;;19.53;19.99
77897;BME280;67092;64.282;21.056;2023-03-31T06:06:15;99994.42;;;19.70;20.02
77897;BME280;67092;64.282;21.056;2023-03-31T06:08:42;99994.75;;;19.69;19.84
77897;BME280;67092;64.282;21.056;2023-03-31T06:11:08;99990.37;;;19.38;20.02
77897;BME280;67092;64.282;21.056;2023-03-31T06:13:34;99990.12;;;20.12;19.79
77897;BME280;67092;64.282;21.056;2023-03-31T06:15:59;99989.37;;;19.88;19.58
77897;BME280;67092;64.282;21.056;2023-03-31T06:18:24;99988.74;;;19.98;19.61
77897;BME280;67092;64.282;21.056;2023-03-31T06:20:50;99987.00;;;19.42;19.76
77897;BME280;67092;64.282;21.056;2023-03-31T06:23:15;99989.98;;;19.71;19.50
77897;BME280;67092;64.282;21.056;2023-03-31T06:25:40;99994.63;;;19.85;19.38
77897;BME280;67092;64.282;21.056;2023-03-31T06:28:06;99993.09;;;19.78;19.57
77897;BME280;67092;64.282;21.056;2023-03-31T06:30:31;99998.31;;;19.69;19.43
77897;BME280;67092;64.282;21.056;2023-03-31T06:32:57;100000.97;;;19.72;19.52
77897;BME280;67092;64.282;21.056;2023-03-31T06:35:23;100000.37;;;19.95;19.15
77897;BME280;67092;64.282;21.056;2023-03-31T06:37:48;99993.45;;;20.07;19.38
77897;BME280;67092;64.282;21.056;2023-03-31T06:40:14;99995.80;;;19.90;19.47
77897;BME280;67092;64.282;21.056;2023-03-31T06:42:40;99991.64;;;19.47;19.31
77897;BME280;67092;64.282;21.056;2023-03-31T06:45:06;99988.58;;;19.49;19.36
77897;BME280;67092;64.282;21.056;2023-03-31T06:47:31;99992.65;;;19.58;19.22
77897;BME280;67092;64.282;21.056;2023-03-31T06:49:56;99993.92;;;20.36;18.99
77897;BME280;67092;64.282;21.056;2023-03-31T06:52:22;99994.44;;;20.03;19.16
77897;BME280;67092;64.282;21.056;2023-03-31T06:54:48;99994.09;;;19.62;19.08
77897;BME280;67092;64.282;21.056;2023-03-31T06:57:13;99997.94;;;19.51;19.12
77897;BME280;67092;64.282;21.056;2023-03-31T06:59:39;100000.48;;;19.55;19.05
77897;BME280;67092;64.282;21.056;2023-03-31T07:02:05;100000.84;;;19.74;18.93
77897;BME280;67092;64.282;21.056;2023-03-31T07:04:30;100005.43;;;19.93;18.93
77897;BME280;67092;64.282;21.056;2023-03-31T07:06:57;100004.21;;;19.66;18.94
77897;BME280;67092;64.282;21.056;2023-03-31T07:09:21;100007.14;;;19.48;19.06
77897;BME280;67092;64.282;21.056;2023-03-31T07:11:47;100005.83;;;19.73;19.02
77897;BME280;67092;64.282;21.056;2023-03-31T07:14:13;100003.96;;;19.64;19.07
77897;BME280;67092;64.282;21.056;2023-03-31T07:16:38;100003.98;;;19.36;19.07
77897;BME280;67092;64.282;21.056;2023-03-31T07:19:05;100004.31;;;19.13;19.40
77897;BME280;67092;64.282;21.056;2023-03-31T07:21:30;100006.29;;;19.60;19.06
77897;BME280;67092;64.282;21.056;2023-03-31T07:23:56;100009.57;;;19.70;19.10
77897;BME280;67092;64.282;21.056;2023-03-31T07:26:21;100007.06;;;19.48;18.90
77897;BME280;67092;64.282;21.056;2023-03-31T07:28:46;100009.57;;;19.66;18.72
77897;BME280;67092;64.282;21.056;2023-03-31T07:31:13;100005.07;;;19.61;18.71
77897;BME280;67092;64.282;21.056;2023-03-31T07:33:38;100007.88;;;19.68;18.87
77897;BME280;67092;64.282;21.056;2023-03-31T07:36:04;100009.28;;;19.67;18.68
77897;BME280;67092;64.282;21.056;2023-03-31T07:38:29;100010.17;;;19.85;18.73
77897;BME280;67092;64.282;21.056;2023-03-31T07:40:55;100007.50;;;19.47;18.84
77897;BME280;67092;64.282;21.056;2023-03-31T07:43:20;100007.19;;;19.88;18.81
77897;BME280;67092;64.282;21.056;2023-03-31T07:45:46;100008.24;;;19.91;18.62
77897;BME280;67092;64.282;21.056;2023-03-31T07:48:11;100006.02;;;19.62;18.63
77897;BME280;67092;64.282;21.056;2023-03-31T07:50:37;100014.79;;;19.72;18.57
77897;BME280;67092;64.282;21.056;2023-03-31T07:53:03;100012.79;;;19.69;18.57
77897;BME280;67092;64.282;21.056;2023-03-31T07:55:28;100017.54;;;19.55;18.85
77897;BME280;67092;64.282;21.056;2023-03-31T07:57:54;100014.86;;;19.27;18.83
77897;BME280;67092;64.282;21.056;2023-03-31T08:00:21;100009.12;;;20.04;18.47
77897;BME280;67092;64.282;21.056;2023-03-31T08:02:45;100011.47;;;19.97;18.47
77897;BME280;67092;64.282;21.056;2023-03-31T08:05:13;100016.62;;;19.13;18.90
77897;BME280;67092;64.282;21.056;2023-03-31T08:07:38;100012.68;;;19.53;18.63
77897;BME280;67092;64.282;21.056;2023-03-31T08:10:03;100016.50;;;20.35;18.33
77897;BME280;67092;64.282;21.056;2023-03-31T08:12:28;100009.87;;;19.32;18.71
77897;BME280;67092;64.282;21.056;2023-03-31T08:14:53;100015.48;;;19.40;18.83
77897;BME280;67092;64.282;21.056;2023-03-31T08:17:19;100018.68;;;19.29;18.91
77897;BME280;67092;64.282;21.056;2023-03-31T08:19:45;100017.59;;;19.71;18.37
77897;BME280;67092;64.282;21.056;2023-03-31T08:22:10;100021.32;;;19.32;18.77
77897;BME280;67092;64.282;21.056;2023-03-31T08:24:36;100023.09;;;19.55;18.44
77897;BME280;67092;64.282;21.056;2023-03-31T08:27:01;100019.24;;;19.44;18.50
77897;BME280;67092;64.282;21.056;2023-03-31T08:29:27;100022.25;;;19.17;18.70
77897;BME280;67092;64.282;21.056;2023-03-31T08:31:53;100027.67;;;19.78;18.40
77897;BME280;67092;64.282;21.056;2023-03-31T08:34:18;100029.73;;;19.04;18.75
77897;BME280;67092;64.282;21.056;2023-03-31T08:36:44;100030.23;;;19.58;18.52
77897;BME280;67092;64.282;21.056;2023-03-31T08:39:10;100032.52;;;19.29;18.53
77897;BME280;67092;64.282;21.056;2023-03-31T08:41:46;100031.65;;;19.39;18.60
77897;BME280;67092;64.282;21.056;2023-03-31T08:44:04;100032.96;;;19.57;18.46
77897;BME280;67092;64.282;21.056;2023-03-31T08:46:28;100034.34;;;19.44;18.51
77897;BME280;67092;64.282;21.056;2023-03-31T08:48:54;100036.67;;;19.38;18.52
77897;BME280;67092;64.282;21.056;2023-03-31T08:51:21;100034.41;;;19.78;18.21
77897;BME280;67092;64.282;21.056;2023-03-31T08:53:48;100032.70;;;19.58;18.51
77897;BME280;67092;64.282;21.056;2023-03-31T08:56:15;100035.53;;;19.57;18.51
77897;BME280;67092;64.282;21.056;2023-03-31T08:58:38;100036.96;;;19.03;18.55
77897;BME280;67092;64.282;21.056;2023-03-31T09:01:06;100039.08;;;19.55;18.16
77897;BME280;67092;64.282;21.056;2023-03-31T09:03:30;100038.98;;;19.64;18.23
77897;BME280;67092;64.282;21.056;2023-03-31T09:05:55;100044.03;;;19.73;17.97
77897;BME280;67092;64.282;21.056;2023-03-31T09:08:30;100043.56;;;19.75;17.92
77897;BME280;67092;64.282;21.056;2023-03-31T09:10:49;100047.24;;;19.58;18.22
77897;BME280;67092;64.282;21.056;2023-03-31T09:13:28;100044.23;;;19.50;18.11
77897;BME280;67092;64.282;21.056;2023-03-31T09:15:38;100043.39;;;19.59;17.99
77897;BME280;67092;64.282;21.056;2023-03-31T09:18:06;100038.71;;;19.91;17.93
77897;BME280;67092;64.282;21.056;2023-03-31T09:20:30;100042.68;;;19.44;18.27
77897;BME280;67092;64.282;21.056;2023-03-31T09:22:54;100042.98;;;19.84;17.84
77897;BME280;67092;64.282;21.056;2023-03-31T09:25:19;100044.94;;;19.50;18.23
77897;BME280;67092;64.282;21.056;2023-03-31T09:27:43;100047.28;;;19.43;18.29
77897;BME280;67092;64.282;21.056;2023-03-31T09:30:12;100051.71;;;19.68;17.91
77897;BME280;67092;64.282;21.056;2023-03-31T09:32:36;100049.25;;;19.45;18.07
77897;BME280;67092;64.282;21.056;2023-03-31T09:35:00;100052.97;;;19.40;18.13
77897;BME280;67092;64.282;21.056;2023-03-31T09:37:29;100052.06;;;19.20;18.21
77897;BME280;67092;64.282;21.056;2023-03-31T09:39:50;100055.21;;;19.50;17.99
77897;BME280;67092;64.282;21.056;2023-03-31T09:42:16;100052.96;;;19.28;18.11
77897;BME280;67092;64.282;21.056;2023-03-31T09:44:44;100055.29;;;19.55;17.88
77897;BME280;67092;64.282;21.056;2023-03-31T09:47:13;100054.73;;;19.59;17.82
77897;BME280;67092;64.282;21.056;2023-03-31T09:49:34;100054.78;;;19.28;18.04
77897;BME280;67092;64.282;21.056;2023-03-31T09:52:03;100056.09;;;19.55;17.99
77897;BME280;67092;64.282;21.056;2023-03-31T09:54:26;100058.39;;;19.80;17.83
77897;BME280;67092;64.282;21.056;2023-03-31T09:56:50;100059.57;;;19.82;17.65
77897;BME280;67092;64.282;21.056;2023-03-31T09:59:17;100062.04;;;19.78;17.82
77897;BME280;67092;64.282;21.056;2023-03-31T10:01:41;100065.37;;;19.53;17.82
77897;BME280;67092;64.282;21.056;2023-03-31T10:04:07;100062.23;;;19.53;17.83
77897;BME280;67092;64.282;21.056;2023-03-31T10:06:33;100067.65;;;19.74;17.67
77897;BME280;67092;64.282;21.056;2023-03-31T10:09:01;100065.91;;;19.58;17.97
77897;BME280;67092;64.282;21.056;2023-03-31T10:11:24;100070.05;;;19.27;18.02
77897;BME280;67092;64.282;21.056;2023-03-31T10:13:53;100065.15;;;19.33;17.97
77897;BME280;67092;64.282;21.056;2023-03-31T10:16:20;100065.93;;;19.53;17.81
77897;BME280;67092;64.282;21.056;2023-03-31T10:18:42;100069.32;;;19.45;17.86
77897;BME280;67092;64.282;21.056;2023-03-31T10:21:17;100067.27;;;19.48;17.83
77897;BME280;67092;64.282;21.056;2023-03-31T10:23:33;100078.43;;;19.43;18.03
77897;BME280;67092;64.282;21.056;2023-03-31T10:25:58;100077.96;;;19.96;17.48
77897;BME280;67092;64.282;21.056;2023-03-31T10:28:23;100079.77;;;19.52;17.79
77897;BME280;67092;64.282;21.056;2023-03-31T10:30:50;100080.42;;;19.37;17.89
77897;BME280;67092;64.282;21.056;2023-03-31T10:33:17;100081.52;;;19.17;18.02
77897;BME280;67092;64.282;21.056;2023-03-31T10:35:40;100080.86;;;19.37;17.87
77897;BME280;67092;64.282;21.056;2023-03-31T10:38:10;100082.15;;;19.64;17.85
77897;BME280;67092;64.282;21.056;2023-03-31T10:40:32;100082.88;;;19.97;17.79
77897;BME280;67092;64.282;21.056;2023-03-31T10:43:02;100088.69;;;19.22;17.97
77897;BME280;67092;64.282;21.056;2023-03-31T10:45:25;100089.87;;;19.89;17.83
77897;BME280;67092;64.282;21.056;2023-03-31T10:47:49;100093.71;;;19.07;18.04
77897;BME280;67092;64.282;21.056;2023-03-31T10:50:14;100092.62;;;19.41;18.17
77897;BME280;67092;64.282;21.056;2023-03-31T10:52:44;100095.36;;;19.59;17.88
77897;BME280;67092;64.282;21.056;2023-03-31T10:55:10;100097.20;;;19.33;18.00
77897;BME280;67092;64.282;21.056;2023-03-31T10:57:38;100098.14;;;19.58;17.86
77897;BME280;67092;64.282;21.056;2023-03-31T11:00:07;100099.37;;;19.73;17.77
77897;BME280;67092;64.282;21.056;2023-03-31T11:04:56;100112.10;;;19.02;18.06
77897;BME280;67092;64.282;21.056;2023-03-31T11:07:23;100113.95;;;19.39;17.82
77897;BME280;67092;64.282;21.056;2023-03-31T11:09:47;100118.76;;;19.67;17.75
77897;BME280;67092;64.282;21.056;2023-03-31T11:12:12;100119.95;;;19.59;17.82
77897;BME280;67092;64.282;21.056;2023-03-31T11:14:41;100120.85;;;19.69;17.59
77897;BME280;67092;64.282;21.056;2023-03-31T11:16:59;100116.73;;;19.39;17.75
77897;BME280;67092;64.282;21.056;2023-03-31T11:19:30;100117.24;;;19.56;17.58
77897;BME280;67092;64.282;21.056;2023-03-31T11:21:57;100115.43;;;19.58;17.59
77897;BME280;67092;64.282;21.056;2023-03-31T11:24:22;100112.35;;;19.35;17.74
77897;BME280;67092;64.282;21.056;2023-03-31T11:26:44;100107.64;;;19.88;17.39
77897;BME280;67092;64.282;21.056;2023-03-31T11:29:14;100107.26;;;19.74;17.49
77897;BME280;67092;64.282;21.056;2023-03-31T11:31:38;100113.20;;;19.21;17.81
77897;BME280;67092;64.282;21.056;2023-03-31T11:34:03;100112.64;;;19.43;17.64
77897;BME280;67092;64.282;21.056;2023-03-31T11:36:32;100114.88;;;19.90;17.31
77897;BME280;67092;64.282;21.056;2023-03-31T11:38:54;100116.03;;;19.67;17.48
77897;BME280;67092;64.282;21.056;2023-03-31T11:41:15;100114.52;;;19.52;17.60
77897;BME280;67092;64.282;21.056;2023-03-31T11:43:42;100118.28;;;19.54;17.76
77897;BME280;67092;64.282;21.056;2023-03-31T11:46:07;100117.99;;;19.51;17.61
77897;BME280;67092;64.282;21.056;2023-03-31T11:48:36;100120.13;;;19.54;17.57
77897;BME280;67092;64.282;21.056;2023-03-31T11:50:56;100118.87;;;19.19;17.80
77897;BME280;67092;64.282;21.056;2023-03-31T11:53:26;100121.62;;;19.73;17.60
77897;BME280;67092;64.282;21.056;2023-03-31T11:55:47;100118.95;;;19.84;17.50
77897;BME280;67092;64.282;21.056;2023-03-31T11:58:14;100116.72;;;19.70;17.59
77897;BME280;67092;64.282;21.056;2023-03-31T12:00:40;100118.15;;;19.67;17.63
77897;BME280;67092;64.282;21.056;2023-03-31T12:03:08;100118.01;;;19.78;17.71
77897;BME280;67092;64.282;21.056;2023-03-31T12:05:31;100116.36;;;19.52;17.72
77897;BME280;67092;64.282;21.056;2023-03-31T12:07:58;100110.86;;;19.62;17.62
77897;BME280;67092;64.282;21.056;2023-03-31T12:10:21;100114.73;;;19.75;17.55
77897;BME280;67092;64.282;21.056;2023-03-31T12:12:50;100114.17;;;20.10;17.47
77897;BME280;67092;64.282;21.056;2023-03-31T12:15:17;100114.71;;;20.10;17.47
77897;BME280;67092;64.282;21.056;2023-03-31T12:17:37;100116.23;;;19.63;17.50
77897;BME280;67092;64.282;21.056;2023-03-31T12:20:08;100114.51;;;19.81;17.70
77897;BME280;67092;64.282;21.056;2023-03-31T12:22:31;100115.86;;;19.50;17.74
77897;BME280;67092;64.282;21.056;2023-03-31T12:24:53;100120.08;;;19.93;17.42
77897;BME280;67092;64.282;21.056;2023-03-31T12:27:21;100123.58;;;19.82;17.50
77897;BME280;67092;64.282;21.056;2023-03-31T12:29:52;100123.99;;;19.46;17.56
77897;BME280;67092;64.282;21.056;2023-03-31T12:32:13;100128.31;;;19.32;17.81
77897;BME280;67092;64.282;21.056;2023-03-31T12:34:40;100131.44;;;19.68;17.42
77897;BME280;67092;64.282;21.056;2023-03-31T12:39:36;100137.55;;;19.92;17.40
77897;BME280;67092;64.282;21.056;2023-03-31T12:42:08;100138.69;;;19.83;17.44
77897;BME280;67092;64.282;21.056;2023-03-31T12:44:30;100139.76;;;19.55;17.49
77897;BME280;67092;64.282;21.056;2023-03-31T12:46:57;100143.73;;;19.40;17.77
77897;BME280;67092;64.282;21.056;2023-03-31T12:49:18;100146.07;;;19.43;17.75
77897;BME280;67092;64.282;21.056;2023-03-31T12:51:48;100147.04;;;19.72;17.72